sensor_id;sensor_type;location;lat;lon;timestamp;P1;durP1;ratioP1;P2;durP2;ratioP2
61291;SDS011;47165;42.664;23.368;2023-03-24T00:01:10;6.50;;;2.80;;
61291;SDS011;47165;42.664;23.368;2023-03-24T00:03:35;4.72;;;2.63;;
61291;SDS011;47165;42.664;23.368;2023-03-24T00:06:02;6.93;;;2.63;;
61291;SDS011;47165;42.664;23.368;2023-03-24T00:08:29;5.20;;;2.63;;
61291;SDS011;47165;42.664;23.368;2023-03-24T00:11:02;3.65;;;2.40;;
61291;SDS011;47165;42.664;23.368;2023-03-24T00:13:30;7.18;;;2.67;;
61291;SDS011;47165;42.664;23.368;2023-03-24T00:15:57;6.25;;;2.60;;
61291;SDS011;47165;42.664;23.368;2023-03-24T00:18:23;7.95;;;2.92;;
61291;SDS011;47165;42.664;23.368;2023-03-24T00:20:52;6.25;;;2.80;;
61291;SDS011;47165;42.664;23.368;2023-03-24T00:23:26;4.97;;;2.35;;
61291;SDS011;47165;42.664;23.368;2023-03-24T00:28:31;4.00;;;2.05;;
61291;SDS011;47165;42.664;23.368;2023-03-24T00:30:58;8.10;;;2.97;;
61291;SDS011;47165;42.664;23.368;2023-03-24T00:33:26;4.03;;;2.40;;
61291;SDS011;47165;42.664;23.368;2023-03-24T00:35:55;6.97;;;3.00;;
61291;SDS011;47165;42.664;23.368;2023-03-24T00:38:21;3.85;;;2.38;;
61291;SDS011;47165;42.664;23.368;2023-03-24T00:40:47;8.63;;;3.33;;
61291;SDS011;47165;42.664;23.368;2023-03-24T00:43:14;5.80;;;2.85;;
61291;SDS011;47165;42.664;23.368;2023-03-24T00:45:40;8.82;;;2.85;;
61291;SDS011;47165;42.664;23.368;2023-03-24T00:48:10;11.13;;;4.68;;
61291;SDS011;47165;42.664;23.368;2023-03-24T00:50:37;8.95;;;4.03;;
61291;SDS011;47165;42.664;23.368;2023-03-24T00:53:02;12.48;;;5.72;;
61291;SDS011;47165;42.664;23.368;2023-03-24T00:55:28;7.38;;;3.65;;
61291;SDS011;47165;42.664;23.368;2023-03-24T00:57:53;5.32;;;2.90;;
61291;SDS011;47165;42.664;23.368;2023-03-24T01:00:20;7.80;;;2.88;;
61291;SDS011;47165;42.664;23.368;2023-03-24T01:02:48;10.07;;;3.35;;
61291;SDS011;47165;42.664;23.368;2023-03-24T01:05:22;8.02;;;3.13;;
61291;SDS011;47165;42.664;23.368;2023-03-24T01:07:50;6.50;;;2.50;;
61291;SDS011;47165;42.664;23.368;2023-03-24T01:10:17;6.22;;;2.72;;
61291;SDS011;47165;42.664;23.368;2023-03-24T01:12:45;6.82;;;2.95;;
61291;SDS011;47165;42.664;23.368;2023-03-24T01:15:13;7.40;;;2.92;;
61291;SDS011;47165;42.664;23.368;2023-03-24T01:17:40;4.68;;;2.83;;
61291;SDS011;47165;42.664;23.368;2023-03-24T01:20:06;6.55;;;3.08;;
61291;SDS011;47165;42.664;23.368;2023-03-24T01:22:35;5.25;;;2.35;;
61291;SDS011;47165;42.664;23.368;2023-03-24T01:25:12;6.60;;;2.67;;
61291;SDS011;47165;42.664;23.368;2023-03-24T01:27:41;5.65;;;2.75;;
61291;SDS011;47165;42.664;23.368;2023-03-24T01:30:07;4.88;;;3.25;;
61291;SDS011;47165;42.664;23.368;2023-03-24T01:32:33;6.95;;;2.75;;
61291;SDS011;47165;42.664;23.368;2023-03-24T01:34:59;9.77;;;2.67;;
61291;SDS011;47165;42.664;23.368;2023-03-24T01:37:24;5.75;;;2.67;;
61291;SDS011;47165;42.664;23.368;2023-03-24T01:39:50;4.78;;;2.75;;
61291;SDS011;47165;42.664;23.368;2023-03-24T01:42:20;4.45;;;2.67;;
61291;SDS011;47165;42.664;23.368;2023-03-24T01:44:47;8.65;;;3.40;;
61291;SDS011;47165;42.664;23.368;2023-03-24T01:47:14;7.53;;;2.85;;
61291;SDS011;47165;42.664;23.368;2023-03-24T01:49:53;5.63;;;2.83;;
61291;SDS011;47165;42.664;23.368;2023-03-24T01:52:24;4.95;;;1.98;;
61291;SDS011;47165;42.664;23.368;2023-03-24T01:54:57;7.13;;;2.45;;
61291;SDS011;47165;42.664;23.368;2023-03-24T01:57:28;4.90;;;2.38;;
61291;SDS011;47165;42.664;23.368;2023-03-24T01:59:58;4.88;;;2.33;;
61291;SDS011;47165;42.664;23.368;2023-03-24T02:02:28;4.80;;;2.40;;
61291;SDS011;47165;42.664;23.368;2023-03-24T02:04:59;6.95;;;2.58;;
61291;SDS011;47165;42.664;23.368;2023-03-24T02:07:39;5.60;;;2.83;;
61291;SDS011;47165;42.664;23.368;2023-03-24T02:10:12;4.57;;;2.55;;
61291;SDS011;47165;42.664;23.368;2023-03-24T02:12:40;5.60;;;2.20;;
61291;SDS011;47165;42.664;23.368;2023-03-24T02:15:07;3.28;;;2.10;;
61291;SDS011;47165;42.664;23.368;2023-03-24T02:20:45;6.40;;;2.75;;
61291;SDS011;47165;42.664;23.368;2023-03-24T02:26:40;4.05;;;3.03;;
61291;SDS011;47165;42.664;23.368;2023-03-24T02:43:41;5.72;;;2.92;;
61291;SDS011;47165;42.664;23.368;2023-03-24T02:46:34;6.57;;;3.05;;
61291;SDS011;47165;42.664;23.368;2023-03-24T02:52:18;6.28;;;3.08;;
61291;SDS011;47165;42.664;23.368;2023-03-24T02:57:26;10.13;;;3.95;;
61291;SDS011;47165;42.664;23.368;2023-03-24T03:02:47;8.13;;;3.53;;
61291;SDS011;47165;42.664;23.368;2023-03-24T03:05:20;8.55;;;3.92;;
61291;SDS011;47165;42.664;23.368;2023-03-24T03:08:00;4.00;;;2.97;;
61291;SDS011;47165;42.664;23.368;2023-03-24T03:10:30;4.70;;;2.72;;
61291;SDS011;47165;42.664;23.368;2023-03-24T03:13:03;4.28;;;2.90;;
61291;SDS011;47165;42.664;23.368;2023-03-24T03:15:50;5.72;;;2.83;;
61291;SDS011;47165;42.664;23.368;2023-03-24T03:18:25;4.88;;;2.05;;
61291;SDS011;47165;42.664;23.368;2023-03-24T03:20:59;4.50;;;2.25;;
61291;SDS011;47165;42.664;23.368;2023-03-24T03:23:36;5.57;;;1.98;;
61291;SDS011;47165;42.664;23.368;2023-03-24T03:26:06;3.20;;;2.10;;
61291;SDS011;47165;42.664;23.368;2023-03-24T03:28:37;3.97;;;2.20;;
61291;SDS011;47165;42.664;23.368;2023-03-24T03:31:09;3.50;;;2.05;;
61291;SDS011;47165;42.664;23.368;2023-03-24T03:33:43;4.10;;;2.28;;
61291;SDS011;47165;42.664;23.368;2023-03-24T03:37:19;5.70;;;2.35;;
61291;SDS011;47165;42.664;23.368;2023-03-24T03:39:29;8.32;;;2.85;;
61291;SDS011;47165;42.664;23.368;2023-03-24T03:41:58;4.43;;;1.98;;
61291;SDS011;47165;42.664;23.368;2023-03-24T03:44:24;4.95;;;2.80;;
61291;SDS011;47165;42.664;23.368;2023-03-24T03:46:50;5.63;;;2.40;;
61291;SDS011;47165;42.664;23.368;2023-03-24T03:49:16;7.30;;;2.92;;
61291;SDS011;47165;42.664;23.368;2023-03-24T03:51:42;6.55;;;2.78;;
61291;SDS011;47165;42.664;23.368;2023-03-24T03:54:09;5.35;;;2.88;;
61291;SDS011;47165;42.664;23.368;2023-03-24T03:56:36;3.35;;;2.20;;
61291;SDS011;47165;42.664;23.368;2023-03-24T03:59:03;2.78;;;1.88;;
61291;SDS011;47165;42.664;23.368;2023-03-24T04:01:31;5.43;;;2.50;;
61291;SDS011;47165;42.664;23.368;2023-03-24T04:19:58;3.35;;;2.33;;
61291;SDS011;47165;42.664;23.368;2023-03-24T04:22:36;5.25;;;2.58;;
61291;SDS011;47165;42.664;23.368;2023-03-24T04:25:08;4.25;;;1.92;;
61291;SDS011;47165;42.664;23.368;2023-03-24T04:27:57;2.97;;;1.65;;
61291;SDS011;47165;42.664;23.368;2023-03-24T04:30:42;3.72;;;1.85;;
61291;SDS011;47165;42.664;23.368;2023-03-24T04:33:25;2.70;;;1.65;;
61291;SDS011;47165;42.664;23.368;2023-03-24T04:36:08;3.97;;;1.85;;
61291;SDS011;47165;42.664;23.368;2023-03-24T04:38:46;4.35;;;1.70;;
61291;SDS011;47165;42.664;23.368;2023-03-24T04:41:17;3.60;;;2.15;;
61291;SDS011;47165;42.664;23.368;2023-03-24T04:43:45;2.78;;;1.52;;
61291;SDS011;47165;42.664;23.368;2023-03-24T04:46:12;2.63;;;1.63;;
61291;SDS011;47165;42.664;23.368;2023-03-24T04:48:42;3.20;;;1.73;;
61291;SDS011;47165;42.664;23.368;2023-03-24T04:51:09;5.47;;;2.75;;
61291;SDS011;47165;42.664;23.368;2023-03-24T04:53:36;2.67;;;2.22;;
61291;SDS011;47165;42.664;23.368;2023-03-24T04:59:07;7.90;;;2.65;;
61291;SDS011;47165;42.664;23.368;2023-03-24T05:01:33;3.17;;;1.85;;
61291;SDS011;47165;42.664;23.368;2023-03-24T05:04:01;4.85;;;2.65;;
61291;SDS011;47165;42.664;23.368;2023-03-24T05:06:28;2.88;;;2.10;;
61291;SDS011;47165;42.664;23.368;2023-03-24T05:08:54;8.05;;;3.13;;
61291;SDS011;47165;42.664;23.368;2023-03-24T05:11:23;3.22;;;1.80;;
61291;SDS011;47165;42.664;23.368;2023-03-24T05:13:52;2.75;;;1.25;;
61291;SDS011;47165;42.664;23.368;2023-03-24T05:16:18;2.65;;;1.73;;
61291;SDS011;47165;42.664;23.368;2023-03-24T05:18:43;4.40;;;1.92;;
61291;SDS011;47165;42.664;23.368;2023-03-24T05:21:09;5.60;;;2.55;;
61291;SDS011;47165;42.664;23.368;2023-03-24T05:23:35;2.65;;;1.58;;
61291;SDS011;47165;42.664;23.368;2023-03-24T05:26:00;5.15;;;1.95;;
61291;SDS011;47165;42.664;23.368;2023-03-24T05:28:26;5.97;;;2.90;;
61291;SDS011;47165;42.664;23.368;2023-03-24T05:30:51;7.15;;;3.00;;
61291;SDS011;47165;42.664;23.368;2023-03-24T05:33:17;3.50;;;2.40;;
61291;SDS011;47165;42.664;23.368;2023-03-24T05:35:42;7.47;;;3.20;;
61291;SDS011;47165;42.664;23.368;2023-03-24T05:38:08;4.40;;;2.28;;
61291;SDS011;47165;42.664;23.368;2023-03-24T05:40:34;6.63;;;2.67;;
61291;SDS011;47165;42.664;23.368;2023-03-24T05:43:01;7.05;;;3.13;;
61291;SDS011;47165;42.664;23.368;2023-03-24T05:45:26;4.90;;;2.47;;
61291;SDS011;47165;42.664;23.368;2023-03-24T05:47:53;2.80;;;2.10;;
61291;SDS011;47165;42.664;23.368;2023-03-24T05:50:19;4.70;;;2.83;;
61291;SDS011;47165;42.664;23.368;2023-03-24T05:52:45;5.78;;;2.67;;
61291;SDS011;47165;42.664;23.368;2023-03-24T05:55:11;4.15;;;2.20;;
61291;SDS011;47165;42.664;23.368;2023-03-24T05:57:36;4.20;;;2.53;;
61291;SDS011;47165;42.664;23.368;2023-03-24T06:00:03;4.55;;;2.45;;
61291;SDS011;47165;42.664;23.368;2023-03-24T06:02:34;5.38;;;2.40;;
61291;SDS011;47165;42.664;23.368;2023-03-24T06:05:00;5.05;;;2.00;;
61291;SDS011;47165;42.664;23.368;2023-03-24T06:07:26;5.30;;;2.38;;
61291;SDS011;47165;42.664;23.368;2023-03-24T06:09:54;4.97;;;2.42;;
61291;SDS011;47165;42.664;23.368;2023-03-24T06:12:22;5.40;;;2.50;;
61291;SDS011;47165;42.664;23.368;2023-03-24T06:14:48;5.30;;;2.75;;
61291;SDS011;47165;42.664;23.368;2023-03-24T06:17:13;8.55;;;3.03;;
61291;SDS011;47165;42.664;23.368;2023-03-24T06:19:42;6.50;;;2.72;;
61291;SDS011;47165;42.664;23.368;2023-03-24T06:22:16;5.95;;;2.70;;
61291;SDS011;47165;42.664;23.368;2023-03-24T06:24:41;5.63;;;2.78;;
61291;SDS011;47165;42.664;23.368;2023-03-24T06:27:07;7.65;;;3.00;;
61291;SDS011;47165;42.664;23.368;2023-03-24T06:29:34;6.15;;;2.72;;
61291;SDS011;47165;42.664;23.368;2023-03-24T06:32:00;5.45;;;2.92;;
61291;SDS011;47165;42.664;23.368;2023-03-24T06:34:26;5.75;;;3.13;;
61291;SDS011;47165;42.664;23.368;2023-03-24T06:36:53;3.75;;;2.42;;
61291;SDS011;47165;42.664;23.368;2023-03-24T06:39:19;4.10;;;2.38;;
61291;SDS011;47165;42.664;23.368;2023-03-24T06:41:45;6.80;;;3.22;;
61291;SDS011;47165;42.664;23.368;2023-03-24T06:44:11;6.25;;;2.67;;
61291;SDS011;47165;42.664;23.368;2023-03-24T06:46:36;5.60;;;2.72;;
61291;SDS011;47165;42.664;23.368;2023-03-24T06:49:02;12.02;;;4.65;;
61291;SDS011;47165;42.664;23.368;2023-03-24T06:51:28;5.72;;;3.40;;
61291;SDS011;47165;42.664;23.368;2023-03-24T06:53:53;5.47;;;3.08;;
61291;SDS011;47165;42.664;23.368;2023-03-24T06:56:19;7.38;;;3.67;;
61291;SDS011;47165;42.664;23.368;2023-03-24T06:58:45;6.25;;;3.30;;
61291;SDS011;47165;42.664;23.368;2023-03-24T07:01:12;6.18;;;3.25;;
61291;SDS011;47165;42.664;23.368;2023-03-24T07:03:39;5.85;;;3.05;;
61291;SDS011;47165;42.664;23.368;2023-03-24T07:06:07;7.38;;;3.67;;
61291;SDS011;47165;42.664;23.368;2023-03-24T07:08:33;8.07;;;3.33;;
61291;SDS011;47165;42.664;23.368;2023-03-24T07:11:00;6.80;;;3.38;;
61291;SDS011;47165;42.664;23.368;2023-03-24T07:13:26;7.35;;;3.10;;
61291;SDS011;47165;42.664;23.368;2023-03-24T07:15:52;7.38;;;3.75;;
61291;SDS011;47165;42.664;23.368;2023-03-24T07:18:17;11.57;;;4.18;;
61291;SDS011;47165;42.664;23.368;2023-03-24T07:20:43;5.53;;;3.80;;
61291;SDS011;47165;42.664;23.368;2023-03-24T07:23:09;6.30;;;2.92;;
61291;SDS011;47165;42.664;23.368;2023-03-24T07:25:35;7.40;;;3.70;;
61291;SDS011;47165;42.664;23.368;2023-03-24T07:28:00;9.98;;;4.78;;
61291;SDS011;47165;42.664;23.368;2023-03-24T07:30:26;6.82;;;3.65;;
61291;SDS011;47165;42.664;23.368;2023-03-24T07:32:51;7.57;;;5.10;;
61291;SDS011;47165;42.664;23.368;2023-03-24T07:35:20;7.07;;;3.50;;
61291;SDS011;47165;42.664;23.368;2023-03-24T07:37:46;8.10;;;4.28;;
61291;SDS011;47165;42.664;23.368;2023-03-24T07:40:12;7.05;;;4.07;;
61291;SDS011;47165;42.664;23.368;2023-03-24T07:42:40;14.13;;;5.85;;
61291;SDS011;47165;42.664;23.368;2023-03-24T07:45:08;9.07;;;3.53;;
61291;SDS011;47165;42.664;23.368;2023-03-24T07:47:35;12.60;;;6.22;;
61291;SDS011;47165;42.664;23.368;2023-03-24T07:50:02;17.02;;;6.68;;
61291;SDS011;47165;42.664;23.368;2023-03-24T07:52:28;7.60;;;3.55;;
61291;SDS011;47165;42.664;23.368;2023-03-24T07:54:54;6.57;;;3.85;;
61291;SDS011;47165;42.664;23.368;2023-03-24T07:57:20;8.55;;;4.70;;
61291;SDS011;47165;42.664;23.368;2023-03-24T07:59:47;7.13;;;3.28;;
61291;SDS011;47165;42.664;23.368;2023-03-24T08:02:19;4.50;;;2.45;;
61291;SDS011;47165;42.664;23.368;2023-03-24T08:04:45;6.07;;;2.88;;
61291;SDS011;47165;42.664;23.368;2023-03-24T08:07:11;10.20;;;4.28;;
61291;SDS011;47165;42.664;23.368;2023-03-24T08:09:39;10.20;;;4.68;;
61291;SDS011;47165;42.664;23.368;2023-03-24T08:12:05;6.32;;;3.60;;
61291;SDS011;47165;42.664;23.368;2023-03-24T08:14:31;8.07;;;4.30;;
61291;SDS011;47165;42.664;23.368;2023-03-24T08:16:56;9.48;;;3.38;;
61291;SDS011;47165;42.664;23.368;2023-03-24T08:19:21;6.10;;;3.15;;
61291;SDS011;47165;42.664;23.368;2023-03-24T08:21:47;8.85;;;4.57;;
61291;SDS011;47165;42.664;23.368;2023-03-24T08:24:12;12.45;;;5.15;;
61291;SDS011;47165;42.664;23.368;2023-03-24T08:26:38;9.18;;;3.88;;
61291;SDS011;47165;42.664;23.368;2023-03-24T08:29:04;10.88;;;6.38;;
61291;SDS011;47165;42.664;23.368;2023-03-24T08:31:33;9.00;;;4.60;;
61291;SDS011;47165;42.664;23.368;2023-03-24T08:34:01;8.05;;;5.05;;
61291;SDS011;47165;42.664;23.368;2023-03-24T08:36:28;7.38;;;4.07;;
61291;SDS011;47165;42.664;23.368;2023-03-24T08:38:54;7.40;;;4.30;;
61291;SDS011;47165;42.664;23.368;2023-03-24T08:41:20;6.30;;;2.92;;
61291;SDS011;47165;42.664;23.368;2023-03-24T08:43:58;6.82;;;3.20;;
61291;SDS011;47165;42.664;23.368;2023-03-24T08:46:28;8.02;;;3.85;;
61291;SDS011;47165;42.664;23.368;2023-03-24T08:48:55;7.05;;;3.70;;
61291;SDS011;47165;42.664;23.368;2023-03-24T08:51:21;6.78;;;3.13;;
61291;SDS011;47165;42.664;23.368;2023-03-24T08:53:47;11.73;;;4.35;;
61291;SDS011;47165;42.664;23.368;2023-03-24T08:56:13;9.98;;;4.15;;
61291;SDS011;47165;42.664;23.368;2023-03-24T08:58:38;7.95;;;3.88;;
61291;SDS011;47165;42.664;23.368;2023-03-24T09:01:04;6.85;;;2.78;;
61291;SDS011;47165;42.664;23.368;2023-03-24T09:03:30;12.20;;;5.80;;
61291;SDS011;47165;42.664;23.368;2023-03-24T09:05:56;8.20;;;4.25;;
61291;SDS011;47165;42.664;23.368;2023-03-24T09:08:22;11.73;;;4.63;;
61291;SDS011;47165;42.664;23.368;2023-03-24T09:10:48;7.45;;;3.40;;
61291;SDS011;47165;42.664;23.368;2023-03-24T09:13:15;9.55;;;4.40;;
61291;SDS011;47165;42.664;23.368;2023-03-24T09:15:51;6.20;;;3.70;;
61291;SDS011;47165;42.664;23.368;2023-03-24T09:18:19;9.48;;;3.85;;
61291;SDS011;47165;42.664;23.368;2023-03-24T09:20:46;9.45;;;3.90;;
61291;SDS011;47165;42.664;23.368;2023-03-24T09:23:11;10.02;;;4.60;;
61291;SDS011;47165;42.664;23.368;2023-03-24T09:25:38;12.60;;;4.88;;
61291;SDS011;47165;42.664;23.368;2023-03-24T09:28:03;8.73;;;4.15;;
61291;SDS011;47165;42.664;23.368;2023-03-24T09:30:30;12.88;;;5.10;;
61291;SDS011;47165;42.664;23.368;2023-03-24T09:32:55;11.27;;;5.35;;
61291;SDS011;47165;42.664;23.368;2023-03-24T09:35:26;6.05;;;3.03;;
61291;SDS011;47165;42.664;23.368;2023-03-24T09:37:52;8.60;;;4.55;;
61291;SDS011;47165;42.664;23.368;2023-03-24T09:40:21;9.00;;;3.28;;
61291;SDS011;47165;42.664;23.368;2023-03-24T09:43:33;10.38;;;3.97;;
61291;SDS011;47165;42.664;23.368;2023-03-24T09:45:53;6.45;;;3.25;;
61291;SDS011;47165;42.664;23.368;2023-03-24T09:48:30;9.25;;;5.30;;
61291;SDS011;47165;42.664;23.368;2023-03-24T09:53:36;7.13;;;4.18;;
61291;SDS011;47165;42.664;23.368;2023-03-24T09:56:18;8.85;;;3.50;;
61291;SDS011;47165;42.664;23.368;2023-03-24T09:58:46;9.25;;;4.90;;
61291;SDS011;47165;42.664;23.368;2023-03-24T10:01:17;8.40;;;4.30;;
61291;SDS011;47165;42.664;23.368;2023-03-24T10:03:44;8.50;;;3.53;;
61291;SDS011;47165;42.664;23.368;2023-03-24T10:06:14;7.53;;;4.20;;
61291;SDS011;47165;42.664;23.368;2023-03-24T10:17:37;6.13;;;3.92;;
61291;SDS011;47165;42.664;23.368;2023-03-24T10:20:15;12.55;;;4.38;;
61291;SDS011;47165;42.664;23.368;2023-03-24T10:28:26;9.40;;;3.75;;
61291;SDS011;47165;42.664;23.368;2023-03-24T10:31:13;6.38;;;3.40;;
61291;SDS011;47165;42.664;23.368;2023-03-24T10:33:42;8.35;;;3.90;;
61291;SDS011;47165;42.664;23.368;2023-03-24T10:38:40;5.22;;;2.88;;
61291;SDS011;47165;42.664;23.368;2023-03-24T10:41:05;7.15;;;4.20;;
61291;SDS011;47165;42.664;23.368;2023-03-24T10:43:31;8.10;;;5.93;;
61291;SDS011;47165;42.664;23.368;2023-03-24T10:45:57;15.20;;;6.00;;
61291;SDS011;47165;42.664;23.368;2023-03-24T10:51:34;8.80;;;3.13;;
61291;SDS011;47165;42.664;23.368;2023-03-24T10:56:50;8.68;;;3.92;;
61291;SDS011;47165;42.664;23.368;2023-03-24T10:59:27;6.72;;;3.88;;
61291;SDS011;47165;42.664;23.368;2023-03-24T11:02:00;6.78;;;3.10;;
61291;SDS011;47165;42.664;23.368;2023-03-24T11:04:27;5.18;;;2.97;;
61291;SDS011;47165;42.664;23.368;2023-03-24T11:09:39;6.22;;;2.85;;
61291;SDS011;47165;42.664;23.368;2023-03-24T11:12:20;9.55;;;4.45;;
61291;SDS011;47165;42.664;23.368;2023-03-24T11:14:47;8.27;;;4.40;;
61291;SDS011;47165;42.664;23.368;2023-03-24T11:17:13;8.05;;;4.03;;
61291;SDS011;47165;42.664;23.368;2023-03-24T11:19:48;6.88;;;3.35;;
61291;SDS011;47165;42.664;23.368;2023-03-24T11:22:18;4.75;;;2.72;;
61291;SDS011;47165;42.664;23.368;2023-03-24T11:24:46;8.35;;;3.70;;
61291;SDS011;47165;42.664;23.368;2023-03-24T11:27:19;8.18;;;3.80;;
61291;SDS011;47165;42.664;23.368;2023-03-24T11:29:50;8.25;;;4.78;;
61291;SDS011;47165;42.664;23.368;2023-03-24T11:32:21;6.35;;;3.50;;
61291;SDS011;47165;42.664;23.368;2023-03-24T11:34:54;5.18;;;3.50;;
61291;SDS011;47165;42.664;23.368;2023-03-24T11:37:26;6.45;;;2.85;;
61291;SDS011;47165;42.664;23.368;2023-03-24T11:40:04;8.55;;;4.32;;
61291;SDS011;47165;42.664;23.368;2023-03-24T11:42:44;5.35;;;3.50;;
61291;SDS011;47165;42.664;23.368;2023-03-24T11:45:21;7.03;;;2.97;;
61291;SDS011;47165;42.664;23.368;2023-03-24T11:47:50;6.43;;;2.90;;
61291;SDS011;47165;42.664;23.368;2023-03-24T11:50:23;10.65;;;4.90;;
61291;SDS011;47165;42.664;23.368;2023-03-24T11:53:11;6.07;;;3.83;;
61291;SDS011;47165;42.664;23.368;2023-03-24T12:01:27;5.00;;;3.20;;
61291;SDS011;47165;42.664;23.368;2023-03-24T12:09:04;5.38;;;3.30;;
61291;SDS011;47165;42.664;23.368;2023-03-24T12:17:32;7.00;;;3.63;;
61291;SDS011;47165;42.664;23.368;2023-03-24T12:20:07;7.95;;;3.20;;
61291;SDS011;47165;42.664;23.368;2023-03-24T12:41:23;5.82;;;2.80;;
61291;SDS011;47165;42.664;23.368;2023-03-24T12:52:15;3.63;;;2.90;;
61291;SDS011;47165;42.664;23.368;2023-03-24T12:55:03;5.30;;;2.55;;
61291;SDS011;47165;42.664;23.368;2023-03-24T13:00:26;9.32;;;2.60;;
61291;SDS011;47165;42.664;23.368;2023-03-24T13:02:59;3.22;;;2.08;;
61291;SDS011;47165;42.664;23.368;2023-03-24T13:05:30;4.78;;;3.05;;
61291;SDS011;47165;42.664;23.368;2023-03-24T13:08:03;5.20;;;2.92;;
61291;SDS011;47165;42.664;23.368;2023-03-24T13:10:37;4.15;;;2.70;;
61291;SDS011;47165;42.664;23.368;2023-03-24T13:13:09;3.55;;;2.30;;
61291;SDS011;47165;42.664;23.368;2023-03-24T13:15:38;3.53;;;2.23;;
61291;SDS011;47165;42.664;23.368;2023-03-24T13:18:26;3.70;;;2.15;;
61291;SDS011;47165;42.664;23.368;2023-03-24T13:20:59;4.30;;;2.17;;
61291;SDS011;47165;42.664;23.368;2023-03-24T13:28:41;2.88;;;2.22;;
61291;SDS011;47165;42.664;23.368;2023-03-24T13:31:16;2.78;;;2.05;;
61291;SDS011;47165;42.664;23.368;2023-03-24T13:33:45;3.70;;;2.03;;
61291;SDS011;47165;42.664;23.368;2023-03-24T13:36:25;3.30;;;1.83;;
61291;SDS011;47165;42.664;23.368;2023-03-24T13:39:15;4.00;;;1.88;;
61291;SDS011;47165;42.664;23.368;2023-03-24T13:41:53;2.92;;;1.92;;
61291;SDS011;47165;42.664;23.368;2023-03-24T13:44:24;2.63;;;1.75;;
61291;SDS011;47165;42.664;23.368;2023-03-24T13:47:04;3.72;;;2.08;;
61291;SDS011;47165;42.664;23.368;2023-03-24T13:49:30;8.20;;;3.47;;
61291;SDS011;47165;42.664;23.368;2023-03-24T13:51:56;8.98;;;3.03;;
61291;SDS011;47165;42.664;23.368;2023-03-24T13:54:26;3.63;;;2.28;;
61291;SDS011;47165;42.664;23.368;2023-03-24T13:56:53;3.40;;;2.10;;
61291;SDS011;47165;42.664;23.368;2023-03-24T14:12:50;2.00;;;1.60;;
61291;SDS011;47165;42.664;23.368;2023-03-24T14:15:17;1.80;;;1.55;;
61291;SDS011;47165;42.664;23.368;2023-03-24T14:17:45;6.55;;;2.70;;
61291;SDS011;47165;42.664;23.368;2023-03-24T14:20:15;3.25;;;1.90;;
61291;SDS011;47165;42.664;23.368;2023-03-24T14:22:49;2.95;;;1.85;;
61291;SDS011;47165;42.664;23.368;2023-03-24T14:27:47;3.42;;;1.67;;
61291;SDS011;47165;42.664;23.368;2023-03-24T14:32:50;1.75;;;1.60;;
61291;SDS011;47165;42.664;23.368;2023-03-24T14:35:19;5.47;;;3.42;;
61291;SDS011;47165;42.664;23.368;2023-03-24T14:40:22;3.67;;;2.00;;
61291;SDS011;47165;42.664;23.368;2023-03-24T14:42:54;4.82;;;2.00;;
61291;SDS011;47165;42.664;23.368;2023-03-24T14:47:58;3.00;;;1.95;;
61291;SDS011;47165;42.664;23.368;2023-03-24T14:50:25;2.58;;;1.98;;
61291;SDS011;47165;42.664;23.368;2023-03-24T14:52:53;2.50;;;1.90;;
61291;SDS011;47165;42.664;23.368;2023-03-24T14:55:22;3.00;;;1.83;;
61291;SDS011;47165;42.664;23.368;2023-03-24T14:57:53;3.72;;;2.00;;
61291;SDS011;47165;42.664;23.368;2023-03-24T15:00:22;2.53;;;2.17;;
61291;SDS011;47165;42.664;23.368;2023-03-24T15:02:50;2.58;;;1.80;;
61291;SDS011;47165;42.664;23.368;2023-03-24T15:13:44;3.78;;;1.90;;
61291;SDS011;47165;42.664;23.368;2023-03-24T15:21:26;2.17;;;1.98;;
61291;SDS011;47165;42.664;23.368;2023-03-24T15:23:52;3.20;;;2.20;;
61291;SDS011;47165;42.664;23.368;2023-03-24T15:26:20;5.60;;;2.22;;
61291;SDS011;47165;42.664;23.368;2023-03-24T15:28:51;3.42;;;2.15;;
61291;SDS011;47165;42.664;23.368;2023-03-24T15:31:18;5.65;;;2.70;;
61291;SDS011;47165;42.664;23.368;2023-03-24T15:33:46;4.22;;;2.70;;
61291;SDS011;47165;42.664;23.368;2023-03-24T15:36:13;5.35;;;3.05;;
61291;SDS011;47165;42.664;23.368;2023-03-24T15:38:43;5.32;;;2.78;;
61291;SDS011;47165;42.664;23.368;2023-03-24T15:41:11;4.00;;;2.55;;
61291;SDS011;47165;42.664;23.368;2023-03-24T15:43:44;5.32;;;2.05;;
61291;SDS011;47165;42.664;23.368;2023-03-24T15:46:18;4.25;;;2.22;;
61291;SDS011;47165;42.664;23.368;2023-03-24T15:48:50;3.38;;;1.77;;
61291;SDS011;47165;42.664;23.368;2023-03-24T15:51:16;4.50;;;2.35;;
61291;SDS011;47165;42.664;23.368;2023-03-24T15:53:44;3.30;;;1.73;;
61291;SDS011;47165;42.664;23.368;2023-03-24T15:58:49;4.15;;;2.50;;
61291;SDS011;47165;42.664;23.368;2023-03-24T16:01:16;3.15;;;2.50;;
61291;SDS011;47165;42.664;23.368;2023-03-24T16:03:45;2.67;;;2.03;;
61291;SDS011;47165;42.664;23.368;2023-03-24T16:06:13;3.53;;;2.08;;
61291;SDS011;47165;42.664;23.368;2023-03-24T16:08:41;3.22;;;2.03;;
61291;SDS011;47165;42.664;23.368;2023-03-24T16:13:38;4.40;;;2.42;;
61291;SDS011;47165;42.664;23.368;2023-03-24T16:18:37;7.95;;;4.65;;
61291;SDS011;47165;42.664;23.368;2023-03-24T16:21:11;8.30;;;3.47;;
61291;SDS011;47165;42.664;23.368;2023-03-24T16:23:38;5.70;;;3.72;;
61291;SDS011;47165;42.664;23.368;2023-03-24T16:26:08;5.00;;;2.75;;
61291;SDS011;47165;42.664;23.368;2023-03-24T16:28:37;4.57;;;2.38;;
61291;SDS011;47165;42.664;23.368;2023-03-24T16:31:03;4.32;;;2.53;;
61291;SDS011;47165;42.664;23.368;2023-03-24T16:33:30;5.22;;;2.40;;
61291;SDS011;47165;42.664;23.368;2023-03-24T16:35:56;8.02;;;2.45;;
61291;SDS011;47165;42.664;23.368;2023-03-24T16:38:22;4.85;;;3.45;;
61291;SDS011;47165;42.664;23.368;2023-03-24T16:40:48;5.90;;;2.45;;
61291;SDS011;47165;42.664;23.368;2023-03-24T16:43:16;3.13;;;2.42;;
61291;SDS011;47165;42.664;23.368;2023-03-24T16:45:43;6.53;;;3.85;;
61291;SDS011;47165;42.664;23.368;2023-03-24T16:48:10;19.35;;;8.95;;
61291;SDS011;47165;42.664;23.368;2023-03-24T16:50:40;11.77;;;6.70;;
61291;SDS011;47165;42.664;23.368;2023-03-24T16:53:10;6.40;;;3.55;;
61291;SDS011;47165;42.664;23.368;2023-03-24T16:55:37;4.75;;;2.75;;
61291;SDS011;47165;42.664;23.368;2023-03-24T16:58:06;7.90;;;3.40;;
61291;SDS011;47165;42.664;23.368;2023-03-24T17:00:32;6.75;;;3.40;;
61291;SDS011;47165;42.664;23.368;2023-03-24T17:03:01;4.78;;;3.00;;
61291;SDS011;47165;42.664;23.368;2023-03-24T17:05:29;3.55;;;2.22;;
61291;SDS011;47165;42.664;23.368;2023-03-24T17:08:10;4.75;;;3.50;;
61291;SDS011;47165;42.664;23.368;2023-03-24T17:10:36;7.65;;;5.25;;
61291;SDS011;47165;42.664;23.368;2023-03-24T17:13:01;7.55;;;4.93;;
61291;SDS011;47165;42.664;23.368;2023-03-24T17:15:28;11.88;;;6.28;;
61291;SDS011;47165;42.664;23.368;2023-03-24T17:17:54;7.88;;;4.65;;
61291;SDS011;47165;42.664;23.368;2023-03-24T17:20:20;7.40;;;4.95;;
61291;SDS011;47165;42.664;23.368;2023-03-24T17:22:49;5.50;;;3.38;;
61291;SDS011;47165;42.664;23.368;2023-03-24T17:25:16;6.43;;;3.13;;
61291;SDS011;47165;42.664;23.368;2023-03-24T17:27:46;6.50;;;2.72;;
61291;SDS011;47165;42.664;23.368;2023-03-24T17:30:17;6.25;;;3.08;;
61291;SDS011;47165;42.664;23.368;2023-03-24T17:32:44;4.53;;;2.63;;
61291;SDS011;47165;42.664;23.368;2023-03-24T17:35:11;6.65;;;2.20;;
61291;SDS011;47165;42.664;23.368;2023-03-24T17:37:38;5.53;;;3.05;;
61291;SDS011;47165;42.664;23.368;2023-03-24T17:40:04;6.15;;;3.60;;
61291;SDS011;47165;42.664;23.368;2023-03-24T17:42:33;10.23;;;2.95;;